Time;durP1;ratioP1;P1;durP2;ratioP2;P2;SDS_P1;SDS_P2;PMS_P1;PMS_P2;Temp;Humidity;BMP_temperature;BMP_pressure;BME280_temperature;BME280_humidity;BME280_pressure;Samples;Min_cycle;Max_cycle;Signal;HPM_P1;HPM_P2
2022/07/19 00:02:08;;;;;;;2.50;2.30;;;;;;;17.26;100.00;150376.56;5072992;28;20195;-60
2022/07/19 00:04:35;;;;;;;2.43;2.33;;;;;;;17.19;100.00;150357.47;5072745;28;20192;-59
2022/07/19 00:07:03;;;;;;;2.63;2.43;;;;;;;17.23;100.00;150367.63;5073211;28;20185;-58
2022/07/19 00:09:30;;;;;;;3.07;2.73;;;;;;;17.24;100.00;150370.16;5072890;28;20192;-59
2022/07/19 00:11:59;;;;;;;3.43;3.17;;;;;;;17.22;100.00;150366.41;5072393;28;20234;-59
2022/07/19 00:14:25;;;;;;;4.43;3.50;;;;;;;17.18;100.00;150354.94;5072660;28;20189;-59
2022/07/19 00:16:52;;;;;;;4.63;4.17;;;;;;;17.26;100.00;150375.28;5072352;28;20246;-59
2022/07/19 00:19:19;;;;;;;10.43;4.40;;;;;;;17.25;100.00;150374.00;5073131;28;20566;-59
2022/07/19 00:21:46;;;;;;;7.17;6.57;;;;;;;17.26;100.00;150376.56;5072932;28;20631;-60
2022/07/19 00:24:13;;;;;;;9.07;7.93;;;;;;;17.22;100.00;150365.13;5071352;28;20195;-60
2022/07/19 00:26:40;;;;;;;10.13;9.30;;;;;;;17.23;100.00;150367.63;5072735;28;20540;-59
2022/07/19 00:29:09;;;;;;;10.63;9.63;;;;;;;17.23;100.00;150367.63;5072485;28;20212;-59
2022/07/19 00:31:36;;;;;;;12.07;10.60;;;;;;;17.18;100.00;150354.94;5072514;28;20188;-60
2022/07/19 00:34:03;;;;;;;12.37;10.23;;;;;;;17.12;100.00;150340.97;5072200;28;20196;-59
2022/07/19 00:36:30;;;;;;;13.27;9.97;;;;;;;17.02;100.00;150315.53;5072743;28;20627;-60
2022/07/19 00:38:57;;;;;;;16.07;10.97;;;;;;;16.83;100.00;148419.63;5072473;28;20212;-59
2022/07/19 00:41:24;;;;;;;9.40;8.60;;;;;;;16.89;100.00;150283.78;5072550;28;20191;-59
2022/07/19 00:43:51;;;;;;;11.30;9.30;;;;;;;16.96;100.00;150150.13;5071902;28;20295;-59
2022/07/19 00:46:22;;;;;;;9.77;8.90;;;;;;;16.87;100.00;150278.72;5072141;28;20196;-60
2022/07/19 00:48:49;;;;;;;21.20;9.47;;;;;;;17.00;100.00;150269.69;5071920;28;20205;-60
2022/07/19 00:51:18;;;;;;;10.43;9.47;;;;;;;16.95;100.00;150225.34;5072061;28;20189;-59
2022/07/19 00:53:46;;;;;;;13.37;9.40;;;;;;;16.83;100.00;145482.25;5072223;28;20639;-59
2022/07/19 00:56:13;;;;;;;14.73;8.80;;;;;;;16.75;100.00;139439.72;5072176;28;20226;-59
2022/07/19 00:58:42;;;;;;;15.00;9.07;;;;;;;16.59;100.00;135409.41;5070621;28;20211;-59
2022/07/19 01:01:10;;;;;;;9.37;7.93;;;;;;;16.38;100.00;138639.78;5072063;28;20185;-59
2022/07/19 01:03:41;;;;;;;11.80;6.90;;;;;;;16.35;100.00;137032.56;5071749;28;20297;-59
2022/07/19 01:06:10;;;;;;;10.80;7.10;;;;;;;16.34;100.00;134681.09;5071560;28;20188;-59
2022/07/19 01:08:38;;;;;;;8.40;7.53;;;;;;;16.26;100.00;125618.81;5071807;28;20214;-60
2022/07/19 01:11:06;;;;;;;12.43;7.00;;;;;;;16.28;100.00;119604.56;5071801;28;20711;-59
2022/07/19 01:13:33;;;;;;;8.70;7.60;;;;;;;16.21;100.00;111250.84;5071738;28;20188;-59
2022/07/19 01:16:00;;;;;;;8.83;7.77;;;;;;;15.74;100.00;110497.38;5071386;28;20644;-59
2022/07/19 01:18:27;;;;;;;10.83;8.00;;;;;;;15.97;100.00;101893.38;5071847;28;20204;-59
2022/07/19 01:20:57;;;;;;;11.10;8.93;;;;;;;15.94;100.00;92269.94;5071792;28;20188;-60
2022/07/19 01:23:25;;;;;;;11.03;9.70;;;;;;;15.97;100.00;84664.22;5072053;28;20191;-60
2022/07/19 01:25:52;;;;;;;15.90;8.63;;;;;;;16.04;100.00;81038.69;5071569;28;20189;-60
2022/07/19 01:28:19;;;;;;;13.17;10.03;;;;;;;15.93;100.00;83667.09;5071975;28;20181;-59
2022/07/19 01:30:47;;;;;;;13.17;11.03;;;;;;;15.47;100.00;69762.88;5071943;28;20188;-59
2022/07/19 01:33:14;;;;;;;14.43;10.27;;;;;;;15.53;100.00;55985.97;5071408;28;20211;-58
2022/07/19 01:35:41;;;;;;;10.17;9.13;;;;;;;15.66;100.00;55015.91;5071515;28;20185;-58
2022/07/19 01:38:07;;;;;;;9.80;8.83;;;;;;;15.80;100.00;55684.47;5071248;28;20209;-59
2022/07/19 01:40:36;;;;;;;10.77;9.63;;;;;;;15.72;100.00;57642.94;5071456;28;20191;-60
2022/07/19 01:43:03;;;;;;;8.93;8.03;;;;;;;15.68;100.00;58622.41;5071770;28;20188;-59
2022/07/19 01:45:29;;;;;;;10.80;8.57;;;;;;;15.69;100.00;57639.94;5071695;28;20185;-59
2022/07/19 01:47:56;;;;;;;8.10;7.60;;;;;;;15.75;100.00;60925.56;5071110;28;20191;-59
2022/07/19 01:50:23;;;;;;;7.17;6.57;;;;;;;15.78;100.00;64868.69;5071142;28;20644;-59
2022/07/19 01:52:50;;;;;;;6.77;6.27;;;;;;;15.83;100.00;70135.03;5071166;28;20187;-59
2022/07/19 01:55:17;;;;;;;5.77;5.43;;;;;;;15.91;100.00;77722.25;5071152;28;20200;-59
2022/07/19 01:57:47;;;;;;;8.30;5.40;;;;;;;15.93;100.00;84327.25;5071439;28;20548;-60
2022/07/19 02:00:14;;;;;;;5.43;4.93;;;;;;;16.07;100.00;86992.00;5071498;28;20279;-59
2022/07/19 02:02:41;;;;;;;7.87;5.50;;;;;;;16.14;100.00;88987.94;5071165;28;20181;-59
2022/07/19 02:05:08;;;;;;;7.60;5.10;;;;;;;16.26;100.00;99617.19;5070899;28;20195;-59
2022/07/19 02:07:35;;;;;;;7.43;6.03;;;;;;;16.17;100.00;107913.22;5070889;28;20185;-59
2022/07/19 02:10:02;;;;;;;5.10;4.70;;;;;;;16.21;100.00;104260.94;5071050;28;20220;-59
2022/07/19 02:12:30;;;;;;;5.30;4.80;;;;;;;15.82;100.00;99211.78;5071428;28;20566;-59
2022/07/19 02:14:58;;;;;;;5.60;4.80;;;;;;;16.18;100.00;99272.47;5071463;28;20529;-59
2022/07/19 02:17:25;;;;;;;4.60;4.30;;;;;;;16.29;100.00;100286.59;5072540;28;20213;-59
2022/07/19 02:19:52;;;;;;;5.33;4.73;;;;;;;16.33;100.00;102287.22;5075141;28;20189;-59
2022/07/19 02:22:19;;;;;;;6.90;5.03;;;;;;;16.35;100.00;103621.44;5074603;28;20185;-59
2022/07/19 02:24:46;;;;;;;10.70;5.30;;;;;;;16.32;100.00;101953.97;5074976;28;20193;-59
2022/07/19 02:27:13;;;;;;;6.63;4.40;;;;;;;16.42;100.00;101970.41;5075297;28;20192;-59
2022/07/19 02:29:40;;;;;;;7.17;5.30;;;;;;;16.49;100.00;99987.50;5075033;28;20263;-60
2022/07/19 02:32:09;;;;;;;10.60;5.67;;;;;;;16.40;100.00;104294.53;5074573;28;20199;-60
2022/07/19 02:34:36;;;;;;;7.00;4.63;;;;;;;16.44;100.00;108962.72;5074765;28;20216;-59
2022/07/19 02:37:03;;;;;;;5.07;4.63;;;;;;;16.52;100.00;110975.94;5074548;28;20184;-60
2022/07/19 02:39:30;;;;;;;5.47;5.07;;;;;;;16.54;100.00;116650.06;5074449;28;20232;-60
2022/07/19 02:41:57;;;;;;;6.30;5.80;;;;;;;16.33;100.00;106943.88;5074646;28;20195;-59
2022/07/19 02:44:25;;;;;;;7.53;5.10;;;;;;;16.28;100.00;100949.31;5074504;28;20181;-60
2022/07/19 02:46:52;;;;;;;6.23;4.77;;;;;;;16.06;100.00;99584.22;5074243;28;20185;-59
2022/07/19 02:49:21;;;;;;;13.57;5.27;;;;;;;16.37;100.00;100633.31;5074272;28;20196;-59
2022/07/19 02:51:48;;;;;;;8.07;5.00;;;;;;;16.40;100.00;110286.94;5074272;28;20184;-58
2022/07/19 02:54:15;;;;;;;5.70;4.60;;;;;;;16.43;100.00;116295.50;5074768;28;20239;-59
2022/07/19 02:56:42;;;;;;;5.77;5.30;;;;;;;16.28;100.00;113263.94;5074004;28;20188;-60
2022/07/19 02:59:09;;;;;;;6.13;4.67;;;;;;;16.34;100.00;112608.63;5074253;28;20579;-60
2022/07/19 03:01:36;;;;;;;10.30;5.30;;;;;;;16.29;100.00;108935.03;5073801;28;20284;-59
2022/07/19 03:04:03;;;;;;;5.33;5.00;;;;;;;16.26;100.00;107929.69;5074119;28;20191;-59
2022/07/19 03:06:31;;;;;;;8.60;6.67;;;;;;;16.37;100.00;104954.50;5073869;28;20191;-59
2022/07/19 03:08:58;;;;;;;6.90;6.27;;;;;;;16.41;100.00;104628.97;5073794;28;20632;-59
2022/07/19 03:11:25;;;;;;;7.93;6.20;;;;;;;16.38;100.00;102296.72;5073905;28;20236;-60
2022/07/19 03:13:51;;;;;;;13.43;6.63;;;;;;;16.34;100.00;101292.72;5073708;28;20188;-59
2022/07/19 03:16:18;;;;;;;6.73;6.13;;;;;;;16.44;100.00;102972.16;5073566;28;20662;-59
2022/07/19 03:18:45;;;;;;;6.10;5.70;;;;;;;16.51;100.00;107309.44;5073676;28;20215;-60
2022/07/19 03:21:12;;;;;;;7.77;6.03;;;;;;;16.61;100.00;109658.72;5073744;28;20635;-59
2022/07/19 03:23:41;;;;;;;8.50;6.53;;;;;;;17.10;100.00;124790.41;5073683;28;20188;-59
2022/07/19 03:26:08;;;;;;;10.63;6.40;;;;;;;18.01;100.00;150563.41;5073590;28;20192;-59
2022/07/19 03:28:35;;;;;;;12.27;6.33;;;;;;;18.83;100.00;150769.47;5073124;28;20643;-59
2022/07/19 03:31:02;;;;;;;6.33;5.73;;;;;;;19.33;100.00;150895.41;5073722;28;20207;-59
2022/07/19 03:33:29;;;;;;;6.50;5.93;;;;;;;19.95;100.00;151053.28;5074071;28;20185;-59
2022/07/19 03:35:56;;;;;;;10.23;5.63;;;;;;;19.73;100.00;150997.25;5073431;28;20185;-59
2022/07/19 03:38:22;;;;;;;11.57;6.10;;;;;;;19.57;100.00;150957.81;5073244;28;20204;-60
2022/07/19 03:40:51;;;;;;;7.60;5.60;;;;;;;19.14;100.00;150849.59;5073292;28;20185;-60
2022/07/19 03:43:18;;;;;;;8.77;5.50;;;;;;;19.09;100.00;150835.63;5073351;28;20208;-59
2022/07/19 03:45:46;;;;;;;11.63;6.43;;;;;;;19.15;100.00;150850.88;5073106;28;20200;-60
2022/07/19 03:48:13;;;;;;;14.13;6.37;;;;;;;19.22;100.00;150868.72;5073334;28;20212;-59
2022/07/19 03:50:40;;;;;;;16.53;6.87;;;;;;;19.48;100.00;150933.63;5073131;28;20189;-60
2022/07/19 03:53:07;;;;;;;13.07;6.73;;;;;;;19.80;100.00;151013.81;5073217;28;20193;-60
2022/07/19 03:55:35;;;;;;;15.40;7.23;;;;;;;19.80;100.00;151015.09;5072915;28;20192;-60
2022/07/19 03:58:03;;;;;;;18.27;8.27;;;;;;;19.79;100.00;151011.28;5072589;28;20211;-60
2022/07/19 04:00:30;;;;;;;12.50;9.13;;;;;;;20.03;100.00;151073.63;5071665;28;20646;-60
2022/07/19 04:02:57;;;;;;;11.70;8.50;;;;;;;20.49;100.00;151189.59;5073171;28;20248;-60
2022/07/19 04:05:24;;;;;;;15.57;9.70;;;;;;;21.02;100.00;151320.75;5072995;28;20189;-59
2022/07/19 04:07:51;;;;;;;12.77;9.40;;;;;;;21.43;100.00;151426.56;5072617;28;20193;-60
2022/07/19 04:10:19;;;;;;;12.13;9.00;;;;;;;21.90;100.00;151543.81;5072804;28;20294;-59
2022/07/19 04:12:46;;;;;;;11.77;7.78;;;;;;;22.26;100.00;151635.69;5072559;28;20185;-60
2022/07/19 04:15:14;;;;;;;9.02;8.10;;;;;;;22.28;100.00;151639.47;5072393;28;20193;-60
2022/07/19 04:17:41;;;;;;;8.93;8.13;;;;;;;22.20;100.00;151619.09;5072741;28;20208;-58
2022/07/19 04:20:08;;;;;;;15.23;8.55;;;;;;;22.26;100.00;151635.69;5072568;28;20208;-58
2022/07/19 04:22:35;;;;;;;8.98;8.13;;;;;;;22.22;100.00;151625.50;5072858;28;20528;-59
2022/07/19 04:25:03;;;;;;;13.27;8.40;;;;;;;22.07;100.00;151585.94;5072222;28;20190;-58
2022/07/19 04:27:30;;;;;;;22.27;8.55;;;;;;;22.19;100.00;151617.81;5072642;28;20212;-59
2022/07/19 04:29:57;;;;;;;12.23;8.60;;;;;;;22.19;100.00;151617.81;5072467;28;20199;-59
2022/07/19 04:32:27;;;;;;;8.95;8.15;;;;;;;22.05;100.00;151580.84;5072199;28;20181;-59
2022/07/19 04:34:54;;;;;;;12.35;7.97;;;;;;;21.97;100.00;151561.75;5072576;28;20184;-59
2022/07/19 04:37:21;;;;;;;9.23;7.55;;;;;;;22.02;100.00;151573.22;5072439;28;20559;-59
2022/07/19 04:39:48;;;;;;;21.67;8.23;;;;;;;22.07;100.00;151585.94;5072066;28;20606;-59
2022/07/19 04:42:15;;;;;;;9.18;7.38;;;;;;;22.04;100.00;151579.56;5072395;28;20224;-60
2022/07/19 04:44:44;;;;;;;11.82;7.95;;;;;;;22.09;100.00;151591.06;5072577;28;20215;-60
2022/07/19 04:47:11;;;;;;;8.48;6.75;;;;;;;22.00;100.00;151568.09;5072066;28;20193;-59
2022/07/19 04:49:40;;;;;;;7.40;6.50;;;;;;;22.12;100.00;151598.69;5072342;28;20558;-59
2022/07/19 04:52:07;;;;;;;9.57;6.85;;;;;;;22.13;100.00;151602.53;5090486;28;20188;-60
2022/07/19 04:54:34;;;;;;;8.57;6.70;;;;;;;22.13;100.00;151602.53;5092544;28;20188;-60
2022/07/19 04:57:01;;;;;;;15.60;6.07;;;;;;;22.12;100.00;151599.97;5092842;28;20213;-59
2022/07/19 04:59:28;;;;;;;82.32;10.00;;;;;;;22.05;100.00;151582.13;5092485;28;20208;-58
2022/07/19 05:01:55;;;;;;;17.40;6.57;;;;;;;22.24;100.00;151630.56;5092741;28;20212;-59
2022/07/19 05:04:23;;;;;;;12.73;6.93;;;;;;;22.44;100.00;151679.03;5091806;28;20203;-59
2022/07/19 05:06:56;;;;;;;8.63;6.60;;;;;;;22.67;100.00;151737.69;5091890;28;20194;-59
2022/07/19 05:09:24;;;;;;;13.00;8.65;;;;;;;22.72;100.00;151751.78;5092055;28;20220;-59
2022/07/19 05:11:51;;;;;;;14.13;8.55;;;;;;;22.76;100.00;151760.69;5092545;28;20733;-59
2022/07/19 05:14:18;;;;;;;12.80;8.13;;;;;;;23.05;100.00;151834.69;5092282;28;20660;-59
2022/07/19 05:16:45;;;;;;;11.65;7.80;;;;;;;23.28;100.00;151892.13;5091824;28;20237;-59
2022/07/19 05:19:12;;;;;;;12.02;7.95;;;;;;;23.54;100.00;151958.53;5092075;28;20226;-59
2022/07/19 05:22:06;;;;;;;11.93;9.02;;;;;;;23.72;100.00;152001.94;5091588;28;20210;-59
2022/07/19 05:24:45;;;;;;;20.52;7.70;;;;;;;24.04;100.00;152084.88;5092509;28;20654;-59
2022/07/19 05:30:32;;;;;;;16.38;8.13;;;;;;;24.36;100.00;152164.06;5072092;28;20712;-60
2022/07/19 05:32:59;;;;;;;17.02;7.75;;;;;;;24.56;100.00;152215.19;5089919;28;20204;-61
2022/07/19 05:35:26;;;;;;;15.45;7.43;;;;;;;24.79;100.00;152273.91;5091999;28;20496;-59
2022/07/19 05:37:53;;;;;;;31.52;8.70;;;;;;;24.71;100.00;152253.47;5092486;28;20192;-58
2022/07/19 05:40:21;;;;;;;14.35;7.00;;;;;;;24.95;100.00;152314.81;5091559;28;20203;-59
2022/07/19 05:42:48;;;;;;;12.85;6.18;;;;;;;25.11;100.00;152354.44;5091796;28;20294;-60
2022/07/19 05:45:15;;;;;;;12.07;6.25;;;;;;;25.22;100.00;152381.25;5091763;28;20234;-59
2022/07/19 05:47:42;;;;;;;16.35;6.60;;;;;;;25.58;100.00;152473.34;5092019;28;20184;-59
2022/07/19 05:50:09;;;;;;;11.18;6.63;;;;;;;25.63;100.00;152486.06;5091650;28;20188;-60
2022/07/19 05:52:36;;;;;;;8.95;6.55;;;;;;;25.86;100.00;152543.59;5093706;28;20199;-59
2022/07/19 05:55:04;;;;;;;6.43;5.68;;;;;;;26.04;100.00;152589.63;5094812;28;20313;-60
2022/07/19 05:57:32;;;;;;;10.15;6.47;;;;;;;26.21;100.00;152633.16;5095761;28;20184;-60
2022/07/19 05:59:59;;;;;;;6.70;6.10;;;;;;;26.52;100.00;152711.09;5093536;28;20208;-59
2022/07/19 06:02:26;;;;;;;7.47;5.75;;;;;;;26.69;100.00;152754.59;5087030;28;20188;-60
2022/07/19 06:04:53;;;;;;;8.13;5.13;;;;;;;26.97;99.06;152823.72;5094175;28;20200;-59
2022/07/19 06:07:20;;;;;;;10.02;4.63;;;;;;;27.18;98.67;152878.72;5093872;28;20534;-60
2022/07/19 06:09:47;;;;;;;10.40;4.18;;;;;;;27.34;91.65;152917.06;5094867;28;20196;-59
2022/07/19 06:12:14;;;;;;;6.85;3.92;;;;;;;27.59;85.24;152982.38;5095099;28;20969;-60
2022/07/19 06:14:42;;;;;;;6.53;4.40;;;;;;;28.18;85.67;153130.88;5094771;28;20188;-59
2022/07/19 06:17:09;;;;;;;8.70;3.83;;;;;;;29.06;81.19;153353.75;5094716;28;20252;-60
2022/07/19 06:19:36;;;;;;;7.07;3.50;;;;;;;29.89;70.97;153565.19;5094807;28;20215;-61
2022/07/19 06:22:02;;;;;;;12.45;3.67;;;;;;;30.28;63.54;153663.88;5092058;28;20554;-60
2022/07/19 06:24:35;;;;;;;7.05;3.85;;;;;;;30.97;66.00;153837.00;5091211;28;20207;-59
2022/07/19 06:27:02;;;;;;;8.05;3.42;;;;;;;30.67;59.55;153761.34;5095084;28;20558;-60
2022/07/19 06:29:29;;;;;;;15.40;4.15;;;;;;;30.44;64.78;153703.66;5094625;28;20188;-60
2022/07/19 06:31:57;;;;;;;9.18;3.67;;;;;;;30.73;58.75;153776.72;5092190;28;20184;-60
2022/07/19 06:34:24;;;;;;;1.50;1.40;;;;;;;31.00;48.28;153844.72;5094886;28;20188;-59
2022/07/19 06:36:51;;;;;;;10.93;8.65;;;;;;;30.42;44.32;153697.22;5094271;28;20192;-60
2022/07/19 06:39:18;;;;;;;4.85;2.20;;;;;;;30.13;48.01;153625.41;5094395;28;20204;-58
2022/07/19 06:41:46;;;;;;;4.82;3.63;;;;;;;29.64;66.50;153499.81;5094520;28;20192;-60
2022/07/19 06:44:16;;;;;;;15.68;4.10;;;;;;;29.71;72.75;153517.72;5094450;28;20192;-60
2022/07/19 06:46:43;;;;;;;5.63;3.42;;;;;;;30.46;59.60;153708.81;5094378;28;20598;-59
2022/07/19 06:49:11;;;;;;;10.57;4.43;;;;;;;31.06;56.99;153861.44;5094823;28;20642;-60
2022/07/19 06:51:38;;;;;;;5.57;3.30;;;;;;;31.00;52.40;153846.03;5094164;28;20746;-60
2022/07/19 06:54:05;;;;;;;7.47;3.40;;;;;;;31.26;53.13;153911.41;5094310;28;20231;-61
2022/07/19 06:56:32;;;;;;;9.77;2.97;;;;;;;31.71;48.04;154025.59;5094170;28;20191;-60
2022/07/19 06:58:59;;;;;;;5.07;2.10;;;;;;;31.35;46.94;153933.22;5094285;28;20212;-59
2022/07/19 07:01:29;;;;;;;6.18;2.95;;;;;;;31.05;49.75;153857.56;5094052;28;20192;-60
2022/07/19 07:03:59;;;;;;;4.38;2.38;;;;;;;30.36;50.82;153684.38;5080240;28;20740;-60
2022/07/19 07:06:28;;;;;;;5.90;5.07;;;;;;;30.14;50.78;153628.00;5084707;28;20196;-61
2022/07/19 07:08:56;;;;;;;3.22;2.65;;;;;;;29.86;51.70;153556.19;5089077;28;20241;-62
2022/07/19 07:11:23;;;;;;;7.53;2.85;;;;;;;30.43;51.21;153699.78;5094582;28;20226;-60
2022/07/19 07:13:50;;;;;;;5.72;2.75;;;;;;;30.50;50.02;153717.78;5083844;28;20203;-60
2022/07/19 07:16:17;;;;;;;2.95;1.73;;;;;;;30.51;46.35;153720.34;5082811;28;20210;-60
2022/07/19 07:18:44;;;;;;;10.13;2.70;;;;;;;30.35;50.72;153680.53;5077790;28;20197;-60
2022/07/19 07:21:11;;;;;;;2.47;1.92;;;;;;;29.81;48.73;153543.38;5074156;28;20185;-59
2022/07/19 07:23:39;;;;;;;6.38;2.70;;;;;;;29.76;48.66;153530.56;5079342;28;20212;-60
2022/07/19 07:26:08;;;;;;;4.43;2.08;;;;;;;29.84;48.45;153551.03;5092142;28;20216;-60
2022/07/19 07:28:35;;;;;;;5.40;2.20;;;;;;;29.54;47.82;153474.16;5093793;28;20245;-60
2022/07/19 07:31:02;;;;;;;1.45;1.35;;;;;;;29.46;46.42;153454.97;5086212;28;20242;-59
2022/07/19 07:33:29;;;;;;;2.05;1.23;;;;;;;29.53;46.58;153471.63;5077907;28;20257;-61
2022/07/19 07:35:56;;;;;;;1.92;1.15;;;;;;;29.14;45.61;153372.94;5093118;28;20220;-60
2022/07/19 07:38:23;;;;;;;2.17;1.40;;;;;;;29.37;46.31;153433.19;5093242;28;20176;-60
2022/07/19 07:40:51;;;;;;;1.90;1.17;;;;;;;29.28;45.68;153408.81;5092454;28;20215;-60
2022/07/19 07:43:18;;;;;;;2.30;1.40;;;;;;;29.05;45.69;153351.19;5093613;28;20184;-60
2022/07/19 07:45:45;;;;;;;2.15;1.10;;;;;;;29.04;44.17;153348.59;5093513;28;20531;-60
2022/07/19 07:48:12;;;;;;;5.32;1.23;;;;;;;28.96;43.33;153329.41;5093698;28;20189;-60
2022/07/19 07:50:39;;;;;;;2.55;1.00;;;;;;;28.33;42.50;153168.03;5093437;28;20680;-60
2022/07/19 07:53:06;;;;;;;1.98;1.40;;;;;;;28.57;42.88;153230.75;5092697;28;20192;-59
2022/07/19 07:55:38;;;;;;;1.02;0.93;;;;;;;28.64;44.17;153246.13;5086490;28;20223;-59
2022/07/19 07:58:07;;;;;;;2.08;1.42;;;;;;;28.53;42.49;153220.50;5093262;28;20256;-60
2022/07/19 08:00:39;;;;;;;2.05;1.15;;;;;;;28.15;42.95;153123.22;5091412;28;20200;-62
2022/07/19 08:03:06;;;;;;;1.08;1.00;;;;;;;28.33;42.89;153169.31;5073482;28;20185;-59
2022/07/19 08:05:33;;;;;;;1.30;1.20;;;;;;;28.53;41.63;153220.50;5088303;28;20922;-62
2022/07/19 08:08:08;;;;;;;1.25;1.10;;;;;;;28.47;41.69;153205.19;5092308;28;20192;-60
2022/07/19 08:10:53;;;;;;;0.93;0.90;;;;;;;28.60;41.80;153237.19;5093677;28;20238;-62
2022/07/19 08:13:26;;;;;;;2.33;1.00;;;;;;;29.17;41.44;153380.63;5094375;28;20626;-61
2022/07/19 08:15:53;;;;;;;1.00;1.00;;;;;;;29.21;46.13;153392.16;5092587;28;20204;-60
2022/07/19 08:18:20;;;;;;;5.97;1.25;;;;;;;29.26;46.21;153404.97;5092947;28;20276;-60
2022/07/19 08:23:55;;;;;;;4.05;1.60;;;;;;;29.18;46.90;153384.47;5085785;28;20203;-60
2022/07/19 08:26:24;;;;;;;2.53;1.30;;;;;;;29.24;44.91;153399.81;5093190;28;20192;-61
2022/07/19 08:28:52;;;;;;;3.33;1.50;;;;;;;29.31;46.55;153417.84;5092614;28;20661;-61
2022/07/19 08:31:19;;;;;;;4.72;1.50;;;;;;;28.44;50.27;153196.16;5093004;28;20238;-60
2022/07/19 08:34:11;;;;;;;4.82;1.52;;;;;;;28.50;49.42;153211.56;5092812;28;20194;-61
2022/07/19 08:36:39;;;;;;;1.20;1.10;;;;;;;28.45;48.47;153198.75;5084313;28;20215;-62
2022/07/19 08:39:07;;;;;;;1.55;1.45;;;;;;;28.47;49.22;153205.19;5092645;28;20215;-62
2022/07/19 08:41:35;;;;;;;1.75;1.65;;;;;;;28.43;48.61;153194.88;5093058;28;20626;-61
2022/07/19 08:44:06;;;;;;;6.70;1.80;;;;;;;28.40;52.07;153187.22;5091974;28;20196;-62
2022/07/19 08:46:37;;;;;;;5.40;2.25;;;;;;;28.55;54.01;153225.66;5093310;28;20184;-60
2022/07/19 08:51:50;;;;;;;1.67;1.10;;;;;;;28.60;50.94;153238.41;5090255;28;20199;-60
2022/07/19 08:54:19;;;;;;;1.73;1.50;;;;;;;28.63;53.88;153243.56;5092645;28;20222;-62
2022/07/19 08:59:57;;;;;;;3.65;1.45;;;;;;;28.16;57.80;153125.78;5093232;28;20210;-60
2022/07/19 09:02:47;;;;;;;1.33;1.25;;;;;;;28.26;57.21;153151.41;5092715;28;20587;-59
2022/07/19 09:05:17;;;;;;;4.97;1.40;;;;;;;28.02;59.29;153089.88;5080091;28;20286;-59
2022/07/19 09:14:14;;;;;;;1.33;1.33;;;;;;;27.54;59.58;152969.56;5059687;28;20242;-60
2022/07/19 09:17:09;;;;;;;2.75;1.10;;;;;;;27.31;63.11;152910.69;5091131;28;20245;-60
2022/07/19 09:19:38;;;;;;;1.55;1.45;;;;;;;27.30;70.01;152906.84;5083575;28;20989;-60
2022/07/19 09:22:14;;;;;;;4.32;1.70;;;;;;;27.32;72.22;152912.00;5092873;28;20192;-60
2022/07/19 09:24:48;;;;;;;2.38;1.55;;;;;;;27.23;66.13;152891.53;5092780;28;20574;-59
2022/07/19 09:27:17;;;;;;;3.70;1.65;;;;;;;27.12;69.10;152862.06;5089186;28;20278;-58
2022/07/19 09:29:45;;;;;;;1.60;1.50;;;;;;;26.93;70.21;152813.47;5072896;28;20200;-60
2022/07/19 09:32:17;;;;;;;1.95;1.38;;;;;;;26.96;68.92;152821.16;5089102;28;20192;-58
2022/07/19 09:34:58;;;;;;;2.50;1.60;;;;;;;26.99;69.43;152830.09;5082278;28;20279;-62
2022/07/19 09:37:27;;;;;;;5.35;1.55;;;;;;;26.94;68.94;152816.06;5091871;28;20546;-61
2022/07/19 09:40:03;;;;;;;1.60;1.50;;;;;;;26.77;71.53;152775.09;5091254;28;20673;-61
2022/07/19 09:42:42;;;;;;;1.65;1.55;;;;;;;26.73;73.96;152764.81;5092469;28;20630;-61
2022/07/19 09:45:11;;;;;;;4.13;1.52;;;;;;;26.77;72.46;152775.09;5090636;28;20648;-61
2022/07/19 09:47:41;;;;;;;2.17;1.10;;;;;;;26.44;80.60;152690.66;5091752;28;20203;-61
2022/07/19 09:50:10;;;;;;;6.57;1.50;;;;;;;26.45;84.46;152693.22;5092190;28;20184;-59
2022/07/19 09:52:39;;;;;;;1.30;1.30;;;;;;;26.40;85.17;152680.41;5091982;28;20599;-60
2022/07/19 09:55:14;;;;;;;2.72;1.40;;;;;;;26.62;86.34;152736.69;5092070;28;20308;-62
2022/07/19 09:57:52;;;;;;;1.55;1.33;;;;;;;26.99;84.97;152828.84;5092364;28;20275;-61
2022/07/19 10:00:22;;;;;;;2.55;1.30;;;;;;;27.36;83.65;152923.50;5088635;28;20246;-61
2022/07/19 10:03:19;;;;;;;0.88;0.88;;;;;;;27.38;70.48;152927.31;5072008;28;20185;-61
2022/07/19 10:06:15;;;;;;;6.18;1.50;;;;;;;27.31;78.30;152910.69;5066613;28;20203;-61
2022/07/19 10:08:44;;;;;;;3.28;1.42;;;;;;;26.80;82.43;152782.75;4970608;28;20695;-61
2022/07/19 10:11:14;;;;;;;7.78;1.77;;;;;;;26.93;85.17;152814.78;5061881;28;20229;-61
2022/07/19 10:13:59;;;;;;;1.10;1.10;;;;;;;26.72;81.09;152761.00;5089622;28;20300;-61
2022/07/19 10:16:57;;;;;;;2.83;1.40;;;;;;;26.43;90.88;152686.84;5090550;28;20199;-61
2022/07/19 10:19:34;;;;;;;2.78;1.23;;;;;;;26.35;92.45;152667.69;5090277;28;20542;-62
2022/07/19 10:22:17;;;;;;;5.20;1.80;;;;;;;26.52;91.40;152711.09;5091501;28;20586;-61
2022/07/19 10:24:52;;;;;;;2.35;1.20;;;;;;;26.60;76.83;152731.59;5091445;28;20203;-61
2022/07/19 10:27:38;;;;;;;1.33;1.27;;;;;;;26.55;83.32;152718.81;5090636;28;20348;-61
2022/07/19 10:30:53;;;;;;;1.30;1.27;;;;;;;26.41;79.19;152683.00;5090870;28;20636;-61
2022/07/19 10:33:29;;;;;;;9.02;1.40;;;;;;;26.26;83.99;152644.66;5090009;28;20228;-61
2022/07/19 10:36:36;;;;;;;1.40;1.30;;;;;;;26.03;90.34;152587.06;5091432;28;20188;-62
2022/07/19 10:39:33;;;;;;;4.57;1.60;;;;;;;26.01;96.43;152580.69;5093528;28;20183;-62
2022/07/19 10:42:28;;;;;;;1.60;1.50;;;;;;;25.98;90.20;152572.97;5059556;28;20689;-61
2022/07/19 10:45:20;;;;;;;1.20;1.20;;;;;;;26.15;91.04;152617.75;5092184;28;20570;-61
2022/07/19 10:48:50;;;;;;;1.63;1.52;;;;;;;26.71;86.20;152759.72;5078401;28;20239;-60
2022/07/19 10:51:39;;;;;;;1.50;1.40;;;;;;;26.78;86.59;152776.31;5086845;28;20199;-62
2022/07/19 10:54:10;;;;;;;2.15;1.35;;;;;;;26.64;100.00;152741.84;5091412;28;20195;-61
2022/07/19 10:56:59;;;;;;;1.42;1.35;;;;;;;26.68;93.27;152752.06;5094727;28;20495;-62
2022/07/19 10:59:41;;;;;;;4.22;1.38;;;;;;;26.46;89.78;152694.50;5094459;28;20195;-62
2022/07/19 11:02:22;;;;;;;3.40;1.17;;;;;;;26.68;92.46;152750.78;5093567;28;20649;-62
2022/07/19 11:04:54;;;;;;;2.70;1.40;;;;;;;26.54;84.51;152716.25;5092252;28;21022;-62
2022/07/19 11:07:23;;;;;;;1.42;1.30;;;;;;;26.24;86.52;152640.81;5093468;28;20203;-62
2022/07/19 11:09:53;;;;;;;4.03;1.50;;;;;;;26.24;87.46;152640.81;5093638;28;20634;-62
2022/07/19 11:15:13;;;;;;;1.58;1.48;;;;;;;26.55;75.28;152718.81;5093000;28;20590;-63
2022/07/19 11:18:05;;;;;;;1.23;1.13;;;;;;;26.56;76.13;152720.09;5093305;28;20192;-62
2022/07/19 11:20:34;;;;;;;5.22;1.50;;;;;;;26.43;89.43;152688.13;5093982;28;20227;-61
2022/07/19 11:23:04;;;;;;;1.52;1.42;;;;;;;26.38;94.50;152674.06;5094871;28;20283;-61
2022/07/19 11:25:33;;;;;;;1.42;1.40;;;;;;;26.26;96.84;152644.66;5093718;28;20185;-62
2022/07/19 11:28:01;;;;;;;3.17;1.20;;;;;;;26.15;92.55;152616.44;5094308;28;20188;-61
2022/07/19 11:30:35;;;;;;;1.17;1.17;;;;;;;25.98;91.23;152574.28;5094675;28;20176;-61
2022/07/19 11:33:05;;;;;;;1.30;1.20;;;;;;;26.14;89.99;152615.16;5093408;28;20200;-61
2022/07/19 11:35:40;;;;;;;2.20;1.02;;;;;;;26.20;84.76;152629.28;5092909;28;20267;-61
2022/07/19 11:38:16;;;;;;;7.13;1.92;;;;;;;26.20;70.13;152629.28;5094374;28;20646;-61
2022/07/19 11:40:43;;;;;;;4.80;1.30;;;;;;;26.10;77.62;152604.94;5093206;28;20247;-62
2022/07/19 11:43:10;;;;;;;1.40;1.30;;;;;;;26.03;73.98;152587.06;5093062;28;20181;-61
2022/07/19 11:45:43;;;;;;;3.17;1.40;;;;;;;26.07;94.73;152596.00;5093970;28;20184;-61
2022/07/19 11:48:10;;;;;;;2.00;1.45;;;;;;;25.99;68.25;152575.56;5091974;28;20188;-63
2022/07/19 11:50:40;;;;;;;3.80;1.33;;;;;;;26.08;81.68;152599.84;5092262;28;20196;-62
2022/07/19 11:53:09;;;;;;;1.35;1.30;;;;;;;26.12;88.48;152608.78;5072922;28;20204;-60
2022/07/19 11:55:38;;;;;;;2.10;2.00;;;;;;;26.12;93.27;152610.09;5093005;28;20184;-59